createdAt,value
2019-05-22T00:01:09.939Z,4.40
2019-05-22T00:03:40.900Z,1.80
2019-05-22T00:06:08.797Z,3.27
2019-05-22T00:08:35.770Z,2.33
2019-05-22T00:11:03.929Z,2.25
2019-05-22T00:13:30.229Z,2.00
2019-05-22T00:15:56.709Z,2.02
2019-05-22T00:18:24.808Z,3.65
2019-05-22T00:20:53.205Z,2.45
2019-05-22T00:23:20.472Z,3.45
2019-05-22T00:25:47.122Z,2.25
2019-05-22T00:28:13.996Z,2.22
2019-05-22T00:30:44.341Z,3.02
2019-05-22T00:33:11.524Z,2.45
2019-05-22T00:35:38.089Z,2.55
2019-05-22T00:38:06.522Z,1.65
2019-05-22T00:40:36.273Z,2.25
2019-05-22T00:43:06.774Z,2.90
2019-05-22T00:45:30.936Z,3.60
2019-05-22T00:47:58.725Z,3.30
2019-05-22T00:50:28.612Z,3.02
2019-05-22T00:53:02.468Z,2.80
2019-05-22T00:55:47.081Z,2.08
2019-05-22T00:58:19.154Z,3.08
2019-05-22T01:00:47.619Z,3.25
2019-05-22T01:03:16.056Z,3.70
2019-05-22T01:05:42.740Z,2.12
2019-05-22T01:08:12.731Z,1.95
2019-05-22T01:10:49.696Z,2.45
2019-05-22T01:13:17.376Z,2.17
2019-05-22T01:15:44.532Z,1.70
2019-05-22T01:18:14.159Z,2.77
2019-05-22T01:20:41.421Z,1.67
2019-05-22T01:23:11.688Z,2.00
2019-05-22T01:25:38.272Z,2.05
2019-05-22T01:28:05.165Z,1.72
2019-05-22T01:30:42.949Z,2.87
2019-05-22T01:33:29.218Z,1.55
2019-05-22T01:36:00.106Z,3.12
2019-05-22T01:38:26.278Z,3.42
2019-05-22T01:40:55.374Z,3.05
2019-05-22T01:43:25.229Z,2.58
2019-05-22T01:45:54.455Z,3.45
2019-05-22T01:48:30.994Z,2.90
2019-05-22T01:50:57.302Z,3.87
2019-05-22T01:53:29.846Z,3.27
2019-05-22T01:55:57.904Z,4.23
2019-05-22T01:58:25.368Z,3.92
2019-05-22T02:00:53.480Z,3.33
2019-05-22T02:03:22.550Z,3.80
2019-05-22T02:05:48.717Z,4.80
2019-05-22T02:08:14.920Z,3.70
2019-05-22T02:10:45.991Z,4.90
2019-05-22T02:13:15.995Z,5.83
2019-05-22T02:15:43.119Z,4.00
2019-05-22T02:18:13.535Z,5.05
2019-05-22T02:20:40.972Z,6.67
2019-05-22T02:23:07.984Z,4.70
2019-05-22T02:25:35.265Z,5.10
2019-05-22T02:28:03.505Z,5.55
2019-05-22T02:30:29.983Z,5.90
2019-05-22T02:32:56.748Z,6.08
2019-05-22T02:35:24.757Z,6.10
2019-05-22T02:37:51.642Z,6.08
2019-05-22T02:40:22.103Z,5.40
2019-05-22T02:42:51.550Z,8.68
2019-05-22T02:45:17.810Z,7.08
2019-05-22T02:47:44.803Z,6.53
2019-05-22T02:50:12.297Z,6.55
2019-05-22T02:52:39.802Z,6.72
2019-05-22T02:55:06.680Z,7.90
2019-05-22T02:57:34.464Z,9.18
2019-05-22T03:00:00.900Z,10.98
2019-05-22T03:02:28.000Z,12.43
2019-05-22T03:04:56.786Z,11.55
2019-05-22T03:07:25.980Z,13.08
2019-05-22T03:09:52.960Z,14.00
2019-05-22T03:12:19.439Z,14.58
2019-05-22T03:14:45.798Z,19.00
2019-05-22T03:17:27.619Z,19.12
2019-05-22T03:19:55.994Z,21.70
2019-05-22T03:22:37.133Z,20.65
2019-05-22T03:25:06.913Z,20.88
2019-05-22T03:27:42.020Z,23.15
2019-05-22T03:30:31.836Z,22.42
2019-05-22T03:33:00.943Z,23.77
2019-05-22T03:35:30.754Z,23.27
2019-05-22T03:37:58.397Z,22.58
2019-05-22T03:40:26.308Z,23.65
2019-05-22T03:42:52.969Z,24.72
2019-05-22T03:45:21.518Z,23.85
2019-05-22T03:47:49.915Z,24.92
2019-05-22T03:50:17.274Z,23.47
2019-05-22T03:52:43.459Z,18.35
2019-05-22T03:55:11.117Z,19.27
2019-05-22T03:57:37.514Z,19.70
2019-05-22T04:00:07.072Z,19.55
2019-05-22T04:02:33.361Z,16.12
2019-05-22T04:04:59.516Z,15.50
2019-05-22T04:07:26.077Z,15.70
2019-05-22T04:09:52.281Z,19.17
2019-05-22T04:12:19.776Z,15.80
2019-05-22T04:14:46.043Z,16.82
2019-05-22T04:17:12.738Z,18.80
2019-05-22T04:19:49.663Z,18.25
2019-05-22T04:22:10.240Z,19.50
2019-05-22T04:24:38.633Z,16.75
2019-05-22T04:27:06.689Z,21.42
2019-05-22T04:29:33.705Z,23.15
2019-05-22T04:32:16.659Z,22.10
2019-05-22T04:34:43.656Z,21.12
2019-05-22T04:37:12.711Z,21.90
2019-05-22T04:39:54.145Z,22.35
2019-05-22T04:42:21.567Z,24.80
2019-05-22T04:45:12.740Z,24.35
2019-05-22T04:47:42.853Z,24.18
2019-05-22T04:50:10.197Z,26.27
2019-05-22T04:52:56.326Z,24.40
2019-05-22T04:55:23.539Z,30.08
2019-05-22T04:57:50.163Z,34.92
2019-05-22T05:00:17.837Z,36.48
2019-05-22T05:02:44.084Z,34.92
2019-05-22T05:05:11.144Z,36.95
2019-05-22T05:07:38.540Z,36.03
2019-05-22T05:10:05.581Z,39.05
2019-05-22T05:12:32.347Z,38.92
2019-05-22T05:14:59.745Z,40.85
2019-05-22T05:17:26.006Z,43.33
2019-05-22T05:19:52.281Z,42.50
2019-05-22T05:22:39.849Z,43.05
2019-05-22T05:25:07.638Z,38.67
2019-05-22T05:27:33.915Z,38.08
2019-05-22T05:30:00.593Z,35.83
2019-05-22T05:32:26.763Z,38.80
2019-05-22T05:34:55.444Z,36.93
2019-05-22T05:37:23.313Z,31.35
2019-05-22T05:39:53.321Z,31.42
2019-05-22T05:42:19.478Z,26.85
2019-05-22T05:44:45.960Z,32.90
2019-05-22T05:47:12.738Z,32.35
2019-05-22T05:49:39.022Z,28.30
2019-05-22T05:52:06.501Z,32.85
2019-05-22T05:54:34.608Z,28.77
2019-05-22T05:57:33.547Z,29.77
2019-05-22T06:00:03.976Z,38.00
2019-05-22T06:02:30.932Z,41.77
2019-05-22T06:04:59.024Z,43.78
2019-05-22T06:07:25.489Z,57.20
2019-05-22T06:09:56.693Z,46.08
2019-05-22T06:12:23.121Z,53.52
2019-05-22T06:14:51.430Z,54.95
2019-05-22T06:17:32.566Z,59.98
2019-05-22T06:20:08.313Z,59.83
2019-05-22T06:22:34.993Z,57.90
2019-05-22T06:25:03.362Z,68.40
2019-05-22T06:27:41.940Z,61.15
2019-05-22T06:30:13.358Z,63.85
2019-05-22T06:33:11.551Z,70.03
2019-05-22T06:35:39.928Z,63.70
2019-05-22T06:38:10.107Z,57.67
2019-05-22T06:40:36.708Z,53.42
2019-05-22T06:43:23.058Z,55.63
2019-05-22T06:45:49.444Z,64.97
2019-05-22T06:48:15.605Z,62.27
2019-05-22T06:50:41.797Z,63.55
2019-05-22T06:53:10.264Z,60.45
2019-05-22T06:55:36.684Z,61.68
2019-05-22T06:58:03.085Z,53.35
2019-05-22T07:00:29.238Z,56.98
2019-05-22T07:02:55.742Z,52.78
2019-05-22T07:05:23.101Z,53.75
2019-05-22T07:07:49.889Z,54.42
2019-05-22T07:10:16.102Z,53.90
2019-05-22T07:12:42.702Z,52.67
2019-05-22T07:18:02.306Z,46.63
2019-05-22T07:20:31.928Z,46.98
2019-05-22T07:22:58.196Z,43.95
2019-05-22T07:25:26.371Z,41.48
2019-05-22T07:27:53.738Z,44.73
2019-05-22T07:30:20.154Z,41.10
2019-05-22T07:32:46.526Z,42.27
2019-05-22T07:35:12.934Z,40.23
2019-05-22T07:37:41.117Z,36.98
2019-05-22T07:40:09.818Z,36.75
2019-05-22T07:42:36.469Z,41.35
2019-05-22T07:45:04.772Z,41.00
2019-05-22T07:47:31.570Z,38.85
2019-05-22T07:49:58.004Z,39.45
2019-05-22T07:52:24.918Z,40.12
2019-05-22T07:54:55.351Z,32.53
2019-05-22T07:57:23.911Z,38.25
2019-05-22T07:59:51.107Z,37.58
2019-05-22T08:02:22.629Z,35.75
2019-05-22T08:04:50.141Z,34.40
2019-05-22T08:07:18.516Z,35.95
2019-05-22T08:09:46.611Z,36.33
2019-05-22T08:12:13.463Z,34.00
2019-05-22T08:14:40.743Z,30.85
2019-05-22T08:17:09.211Z,34.08
2019-05-22T08:19:35.838Z,30.92
2019-05-22T08:22:07.237Z,31.15
2019-05-22T08:24:30.563Z,30.80
2019-05-22T08:26:56.881Z,29.57
2019-05-22T08:29:23.891Z,25.75
2019-05-22T08:31:51.446Z,27.35
2019-05-22T08:34:18.226Z,28.67
2019-05-22T08:36:47.937Z,32.15
2019-05-22T08:39:15.373Z,30.72
2019-05-22T08:41:42.943Z,33.25
2019-05-22T08:44:16.642Z,30.05
2019-05-22T08:46:39.270Z,28.67
2019-05-22T08:52:01.276Z,33.45
2019-05-22T08:54:30.969Z,34.53
2019-05-22T08:56:57.289Z,33.83
2019-05-22T08:59:23.850Z,31.93
2019-05-22T09:01:50.964Z,31.55
2019-05-22T09:04:17.442Z,30.05
2019-05-22T09:06:44.651Z,32.50
2019-05-22T09:09:11.077Z,26.62
2019-05-22T09:11:37.336Z,34.58
2019-05-22T09:14:03.897Z,28.17
2019-05-22T09:16:30.523Z,32.98
2019-05-22T09:18:56.745Z,30.52
2019-05-22T09:21:24.377Z,28.92
2019-05-22T09:23:50.792Z,27.60
2019-05-22T09:26:17.722Z,27.02
2019-05-22T09:28:44.454Z,26.35
2019-05-22T09:31:10.741Z,23.40
2019-05-22T09:33:37.842Z,25.45
2019-05-22T09:36:04.155Z,23.25
2019-05-22T09:38:30.845Z,24.98
2019-05-22T09:40:57.741Z,24.10
2019-05-22T09:43:23.909Z,22.73
2019-05-22T09:45:52.317Z,25.23
2019-05-22T09:48:19.562Z,24.40
2019-05-22T09:50:46.189Z,24.67
2019-05-22T09:53:12.691Z,23.50
2019-05-22T09:55:38.917Z,24.65
2019-05-22T09:58:06.343Z,21.93
2019-05-22T10:00:33.983Z,23.55
2019-05-22T10:03:00.409Z,26.90
2019-05-22T10:05:28.827Z,24.77
2019-05-22T10:08:01.104Z,24.50
2019-05-22T10:10:25.976Z,24.18
2019-05-22T10:12:52.387Z,30.48
2019-05-22T10:15:20.451Z,29.37
2019-05-22T10:17:48.481Z,30.65
2019-05-22T10:20:15.391Z,32.90
2019-05-22T10:22:42.474Z,35.15
2019-05-22T10:25:22.722Z,37.20
2019-05-22T10:27:49.378Z,32.98
2019-05-22T10:30:21.893Z,36.15
2019-05-22T10:32:48.641Z,32.95
2019-05-22T10:35:16.552Z,33.33
2019-05-22T10:37:42.714Z,29.95
2019-05-22T10:40:28.912Z,24.25
2019-05-22T10:42:55.675Z,26.57
2019-05-22T10:45:22.677Z,26.87
2019-05-22T10:47:51.153Z,25.68
2019-05-22T10:50:21.596Z,30.37
2019-05-22T10:52:55.322Z,29.25
2019-05-22T10:55:24.534Z,32.50
2019-05-22T10:57:53.480Z,32.88
2019-05-22T11:00:22.829Z,33.90
2019-05-22T11:02:49.521Z,31.52
2019-05-22T11:05:18.898Z,32.42
2019-05-22T11:07:45.720Z,27.70
2019-05-22T11:10:13.106Z,35.38
2019-05-22T11:12:39.611Z,28.92
2019-05-22T11:15:06.789Z,30.10
2019-05-22T11:17:33.718Z,31.42
2019-05-22T11:20:00.032Z,26.87
2019-05-22T11:22:26.525Z,29.42
2019-05-22T11:24:53.907Z,33.15
2019-05-22T11:27:21.184Z,33.05
2019-05-22T11:29:48.801Z,30.35
2019-05-22T11:32:15.324Z,33.00
2019-05-22T11:34:41.607Z,31.23
2019-05-22T11:37:08.469Z,34.98
2019-05-22T11:39:39.374Z,33.50
2019-05-22T11:42:04.335Z,35.50
2019-05-22T11:44:31.248Z,31.00
2019-05-22T11:46:57.809Z,33.88
2019-05-22T11:49:24.115Z,37.03
2019-05-22T11:51:50.276Z,33.95
2019-05-22T11:54:17.051Z,31.73
2019-05-22T11:56:43.405Z,30.62
2019-05-22T11:59:10.653Z,32.73
2019-05-22T12:01:36.815Z,34.50
2019-05-22T12:04:06.817Z,34.73
2019-05-22T12:06:33.369Z,32.50
2019-05-22T12:08:59.778Z,30.20
2019-05-22T12:11:26.373Z,31.73
2019-05-22T12:13:53.060Z,36.65
2019-05-22T12:16:20.023Z,33.00
2019-05-22T12:18:47.095Z,32.63
2019-05-22T12:21:13.386Z,33.35
2019-05-22T12:23:39.682Z,34.33
2019-05-22T12:26:07.525Z,32.60
2019-05-22T12:28:33.793Z,38.00
2019-05-22T12:31:00.985Z,35.65
2019-05-22T12:33:27.998Z,36.30
2019-05-22T12:35:54.990Z,36.15
2019-05-22T12:38:22.309Z,38.75
2019-05-22T12:40:48.519Z,37.83
2019-05-22T12:43:15.369Z,38.08
2019-05-22T12:45:41.893Z,35.48
2019-05-22T12:48:08.667Z,33.48
2019-05-22T12:50:36.489Z,35.80
2019-05-22T12:53:03.861Z,35.73
2019-05-22T12:55:30.974Z,34.90
2019-05-22T12:57:58.785Z,33.08
2019-05-22T13:00:26.421Z,34.38
2019-05-22T13:02:53.486Z,33.75
2019-05-22T13:05:20.073Z,31.73
2019-05-22T13:07:46.872Z,32.20
2019-05-22T13:10:14.158Z,29.52
2019-05-22T13:12:40.584Z,33.95
2019-05-22T13:15:10.317Z,31.25
2019-05-22T13:17:36.159Z,30.97
2019-05-22T13:20:06.114Z,32.08
2019-05-22T13:22:33.111Z,32.10
2019-05-22T13:25:01.075Z,30.48
2019-05-22T13:27:28.516Z,28.17
2019-05-22T13:29:55.309Z,26.85
2019-05-22T13:32:22.378Z,26.97
2019-05-22T13:34:49.126Z,26.12
2019-05-22T13:37:15.865Z,28.73
2019-05-22T13:39:43.070Z,26.17
2019-05-22T13:42:13.445Z,28.35
2019-05-22T13:44:39.777Z,26.82
2019-05-22T13:47:06.736Z,27.45
2019-05-22T13:49:34.831Z,27.80
2019-05-22T13:52:01.464Z,26.02
2019-05-22T13:54:27.877Z,29.87
2019-05-22T13:56:54.707Z,28.50
2019-05-22T13:59:22.177Z,29.52
2019-05-22T14:01:48.733Z,33.63
2019-05-22T14:04:16.036Z,30.55
2019-05-22T14:06:43.167Z,32.38
2019-05-22T14:09:13.047Z,32.25
2019-05-22T14:11:40.054Z,32.88
2019-05-22T14:14:06.898Z,32.33
2019-05-22T14:16:47.647Z,30.62
2019-05-22T14:19:01.604Z,32.50
2019-05-22T14:21:27.892Z,31.95
2019-05-22T14:23:54.266Z,34.15
2019-05-22T14:26:20.641Z,29.70
2019-05-22T14:28:47.341Z,30.52
2019-05-22T14:31:13.600Z,31.25
2019-05-22T14:33:40.759Z,33.28
2019-05-22T14:36:07.646Z,32.93
2019-05-22T14:38:35.041Z,36.60
2019-05-22T14:41:02.712Z,38.30
2019-05-22T14:43:29.125Z,34.55
2019-05-22T14:45:56.588Z,33.13
2019-05-22T14:48:22.911Z,37.55
2019-05-22T14:50:50.153Z,35.00
2019-05-22T14:53:16.647Z,36.88
2019-05-22T14:55:43.279Z,35.90
2019-05-22T14:58:11.593Z,34.75
2019-05-22T15:00:39.579Z,33.83
2019-05-22T15:03:06.262Z,38.00
2019-05-22T15:05:33.333Z,36.23
2019-05-22T15:07:59.643Z,36.70
2019-05-22T15:10:27.103Z,32.67
2019-05-22T15:12:53.697Z,32.60
2019-05-22T15:15:21.464Z,34.53
2019-05-22T15:17:48.197Z,33.60
2019-05-22T15:20:23.112Z,35.58
2019-05-22T15:22:49.498Z,33.35
2019-05-22T15:25:15.970Z,34.00
2019-05-22T15:27:42.971Z,32.23
2019-05-22T15:30:10.134Z,30.10
2019-05-22T15:32:36.402Z,33.20
2019-05-22T15:35:04.163Z,31.10
2019-05-22T15:37:30.778Z,30.45
2019-05-22T15:39:57.527Z,32.98
2019-05-22T15:42:36.337Z,36.17
2019-05-22T15:45:22.291Z,34.40
2019-05-22T15:47:55.652Z,35.15
2019-05-22T15:50:27.015Z,34.10
2019-05-22T15:52:58.936Z,32.35
2019-05-22T15:55:29.319Z,32.95
2019-05-22T15:57:57.704Z,34.83
2019-05-22T16:00:27.768Z,31.27
2019-05-22T16:02:54.017Z,31.93
2019-05-22T16:05:21.658Z,35.78
2019-05-22T16:07:50.343Z,30.97
2019-05-22T16:10:21.048Z,29.18
2019-05-22T16:12:47.637Z,26.42
2019-05-22T16:15:16.116Z,24.63
2019-05-22T16:17:44.182Z,27.25
2019-05-22T16:20:15.091Z,28.52
2019-05-22T16:22:42.264Z,25.97
2019-05-22T16:25:10.605Z,24.27
2019-05-22T16:27:39.710Z,24.80
2019-05-22T16:30:06.594Z,26.48
2019-05-22T16:32:34.267Z,27.65
2019-05-22T16:35:01.384Z,29.90
2019-05-22T16:37:27.807Z,25.30
2019-05-22T16:39:54.070Z,25.35
2019-05-22T16:42:20.397Z,26.45
2019-05-22T16:44:46.706Z,26.35
2019-05-22T16:47:13.918Z,23.50
2019-05-22T16:49:40.416Z,23.83
2019-05-22T16:52:08.333Z,24.05
2019-05-22T16:54:36.873Z,20.90
2019-05-22T16:57:03.258Z,21.35
2019-05-22T16:59:30.379Z,24.77
2019-05-22T17:02:00.175Z,21.87
2019-05-22T17:04:25.939Z,23.18
2019-05-22T17:06:53.305Z,23.57
2019-05-22T17:09:21.123Z,20.92
2019-05-22T17:11:48.256Z,23.87
2019-05-22T17:14:16.192Z,22.55
2019-05-22T17:16:44.069Z,21.25
2019-05-22T17:19:25.671Z,15.40
2019-05-22T17:21:39.663Z,16.30
2019-05-22T17:24:09.856Z,17.48
2019-05-22T17:26:36.297Z,17.42
2019-05-22T17:29:03.025Z,16.30
2019-05-22T17:31:29.490Z,14.35
2019-05-22T17:33:56.921Z,15.98
2019-05-22T17:36:23.983Z,13.68
2019-05-22T17:38:50.697Z,15.03
2019-05-22T17:41:18.078Z,14.68
2019-05-22T17:43:44.572Z,14.93
2019-05-22T17:46:12.059Z,13.68
2019-05-22T17:48:38.951Z,14.60
2019-05-22T17:51:05.244Z,14.43
2019-05-22T17:53:32.191Z,15.70
2019-05-22T17:55:58.467Z,13.08
2019-05-22T17:58:29.788Z,16.07
2019-05-22T18:00:53.738Z,14.55
2019-05-22T18:03:20.317Z,14.33
2019-05-22T18:05:47.207Z,14.10
2019-05-22T18:08:14.478Z,15.38
2019-05-22T18:10:43.575Z,16.17
2019-05-22T18:13:11.544Z,20.15
2019-05-22T18:15:38.261Z,13.00
2019-05-22T18:18:04.722Z,17.25
2019-05-22T18:20:42.440Z,16.45
2019-05-22T18:23:00.012Z,16.45
2019-05-22T18:25:26.565Z,12.93
2019-05-22T18:27:53.886Z,14.43
2019-05-22T18:30:20.503Z,12.25
2019-05-22T18:32:47.055Z,10.08
2019-05-22T18:35:13.739Z,11.78
2019-05-22T18:37:40.326Z,11.50
2019-05-22T18:40:07.329Z,11.83
2019-05-22T18:42:33.596Z,10.38
2019-05-22T18:45:00.049Z,11.83
2019-05-22T18:47:26.467Z,11.57
2019-05-22T18:49:52.681Z,10.13
2019-05-22T18:52:19.320Z,11.97
2019-05-22T18:54:45.585Z,12.73
2019-05-22T18:57:11.891Z,11.50
2019-05-22T18:59:38.148Z,12.68
2019-05-22T19:02:04.952Z,13.20
2019-05-22T19:04:31.856Z,22.87
2019-05-22T19:06:58.425Z,22.73
2019-05-22T19:09:25.024Z,19.92
2019-05-22T19:11:51.632Z,14.60
2019-05-22T19:14:19.224Z,16.62
2019-05-22T19:16:46.655Z,12.80
2019-05-22T19:19:12.812Z,14.25
2019-05-22T19:21:39.194Z,12.90
2019-05-22T19:24:05.412Z,12.60
2019-05-22T19:26:31.975Z,13.45
2019-05-22T19:28:58.697Z,14.13
2019-05-22T19:31:25.617Z,14.40
2019-05-22T19:33:51.929Z,12.65
2019-05-22T19:36:18.552Z,12.40
2019-05-22T19:38:44.937Z,14.25
2019-05-22T19:41:11.309Z,14.30
2019-05-22T19:43:37.808Z,15.88
2019-05-22T19:46:04.090Z,15.38
2019-05-22T19:48:30.278Z,15.60
2019-05-22T19:50:56.644Z,17.73
2019-05-22T19:53:23.423Z,14.65
2019-05-22T19:55:50.618Z,15.65
2019-05-22T19:58:21.831Z,15.70
2019-05-22T20:00:47.008Z,14.78
2019-05-22T20:03:15.745Z,18.35
2019-05-22T20:05:42.925Z,16.57
2019-05-22T20:08:09.489Z,15.65
2019-05-22T20:10:36.682Z,13.65
2019-05-22T20:13:05.250Z,14.20
2019-05-22T20:15:32.129Z,13.88
2019-05-22T20:17:58.896Z,16.00
2019-05-22T20:20:25.073Z,15.55
2019-05-22T20:22:52.255Z,15.58
2019-05-22T20:25:32.103Z,16.45
2019-05-22T20:28:00.933Z,14.25
2019-05-22T20:30:28.846Z,16.60
2019-05-22T20:32:55.103Z,14.13
2019-05-22T20:35:21.705Z,17.02
2019-05-22T20:37:48.348Z,15.25
2019-05-22T20:40:16.787Z,14.20
2019-05-22T20:42:43.587Z,19.55
2019-05-22T20:45:12.376Z,15.48
2019-05-22T20:47:40.365Z,15.90
2019-05-22T20:50:09.947Z,17.10
2019-05-22T20:52:36.553Z,18.02
2019-05-22T20:55:06.327Z,19.55
2019-05-22T20:57:32.804Z,18.15
2019-05-22T21:00:00.286Z,20.35
2019-05-22T21:02:29.177Z,18.70
2019-05-22T21:04:56.777Z,17.10
2019-05-22T21:07:26.890Z,19.12
2019-05-22T21:09:53.745Z,18.82
2019-05-22T21:12:22.234Z,19.87
2019-05-22T21:14:48.666Z,19.85
2019-05-22T21:17:15.221Z,17.85
2019-05-22T21:19:43.030Z,18.00
2019-05-22T21:22:11.092Z,21.12
2019-05-22T21:24:37.281Z,23.90
2019-05-22T21:27:06.039Z,19.90
2019-05-22T21:29:32.257Z,22.25
2019-05-22T21:31:58.812Z,23.80
2019-05-22T21:34:25.325Z,22.20
2019-05-22T21:36:52.933Z,19.12
2019-05-22T21:39:19.917Z,16.42
2019-05-22T21:41:46.076Z,20.97
2019-05-22T21:44:12.508Z,21.07
2019-05-22T21:46:38.862Z,21.70
2019-05-22T21:49:05.942Z,20.27
2019-05-22T21:51:33.820Z,20.08
2019-05-22T21:54:01.233Z,18.40
2019-05-22T21:56:28.607Z,20.20
2019-05-22T21:58:55.358Z,19.67
2019-05-22T22:01:26.526Z,19.27
2019-05-22T22:03:57.348Z,21.75
2019-05-22T22:06:23.932Z,19.65
2019-05-22T22:08:50.100Z,20.68
2019-05-22T22:11:17.785Z,19.85
2019-05-22T22:13:44.501Z,19.17
2019-05-22T22:16:11.306Z,21.85
2019-05-22T22:18:38.833Z,24.27
2019-05-22T22:21:05.979Z,20.68
2019-05-22T22:23:32.252Z,20.65
2019-05-22T22:25:59.798Z,20.55
2019-05-22T22:28:26.564Z,21.52
2019-05-22T22:30:56.649Z,21.10
2019-05-22T22:33:27.216Z,25.08
2019-05-22T22:35:54.429Z,25.02
2019-05-22T22:38:23.910Z,27.50
2019-05-22T22:40:51.124Z,21.97
2019-05-22T22:43:19.884Z,23.95
2019-05-22T22:45:52.195Z,28.05
2019-05-22T22:48:32.921Z,26.07
2019-05-22T22:51:03.379Z,26.15
2019-05-22T22:53:30.916Z,27.40
2019-05-22T22:55:57.099Z,28.98
2019-05-22T22:58:24.389Z,39.92
2019-05-22T23:00:51.916Z,31.27
2019-05-22T23:03:23.618Z,36.05
2019-05-22T23:05:51.942Z,31.45
2019-05-22T23:08:29.869Z,33.78
2019-05-22T23:10:56.672Z,30.48
2019-05-22T23:13:23.108Z,30.20
2019-05-22T23:15:50.901Z,32.38
2019-05-22T23:18:29.901Z,29.12
2019-05-22T23:20:56.580Z,30.75
2019-05-22T23:23:22.547Z,33.40
2019-05-22T23:25:48.852Z,30.95
2019-05-22T23:28:16.000Z,29.12
2019-05-22T23:30:42.170Z,29.77
2019-05-22T23:33:08.345Z,31.62
2019-05-22T23:35:34.840Z,32.40
2019-05-22T23:38:01.304Z,31.27
2019-05-22T23:40:30.885Z,28.10
2019-05-22T23:42:58.200Z,28.92
2019-05-22T23:45:25.060Z,31.33
2019-05-22T23:48:05.449Z,31.45
2019-05-22T23:50:34.608Z,28.55
2019-05-22T23:53:01.682Z,29.35
2019-05-22T23:55:28.664Z,25.43
2019-05-22T23:57:55.341Z,32.03
